ADDS TAF Board INFO
 
 

IDs: Format: Expanded Condensed

KSTL - St Louis/Lambert Int, MO, US

Issued at 0520 UTC 01 Aug 2014
Time0651Z01/08Z01/09Z01/10Z01/11Z01/12Z01/13Z01/14Z01/15Z01/16Z01/17Z01/18Z01/19Z01/20Z
TypeOBSPRVLPRVLPRVLPRVLPRVLPRVLPRVLPRVLPRVLPRVLPRVLPRVLPRVL
Vis10>6>6>6>6>6>6>6>6>6>6>6>6>6
Cig----------------------250250250
CoverFEWSCTSCTSCTSCTSCTSCTSCTSCTSCTSCTBKNBKNBKN
FltCat--VFRVFRVFRVFRVFRVFRVFRVFRVFRVFRVFRVFRVFR
Wx----------------------------
WDir200VRBVRBVRBVRBVRBVRBVRBVRBVRBVRB707070
WSpd34444444444555
WGst----------------------------
R06/24
XWnd-2VRBVRBVRBVRBVRBVRBVRBVRBVRBVRB-1-1-1
HWnd-2VRBVRBVRBVRBVRBVRBVRBVRBVRBVRB555
R11/29
XWnd-3VRBVRBVRBVRBVRBVRBVRBVRBVRBVRB444
HWnd1VRBVRBVRBVRBVRBVRBVRBVRBVRBVRB333
R12/30
XWnd-3VRBVRBVRBVRBVRBVRBVRBVRBVRBVRB444
HWnd1VRBVRBVRBVRBVRBVRBVRBVRBVRBVRB333
Raw TAF
KSTL 010520Z 0106/0212 VRB04KT P6SM SCT250
  FM011800 07005KT P6SM SCT050 BKN250


Raw METAR
KSTL 010651Z 20003KT 10SM FEW250 22/17 A3006 RMK AO2 SLP168 T02220167

TAF Board Legend

Hazard Green Yellow Red Magenta
Visibility (sm) >5 >2.99 >0.99 <=0.99
Ceiling (100 ft) >30 >9.99 >4.99 <=4.99
Wind Speed (kt) <10 <20 <30 >=30
Wind Gust (kt) <10 <20 <30 >=30
Weather No Wx Reported Light precipitation Moderate precipitation Heavy precipitation
Flight Category VFR MVFR IFR LIFR

Page loaded:  07:47 UTC  |   12:47 AM Pacific  |   01:47 AM Mountain  |   02:47 AM Central  |   03:47 AM Eastern

 

ADVISORIES

FORECASTS

FORECASTS

OBSERVATIONS

USER TOOLS

ABOUT US